KONL

The O'neill Municipal-John L Baker Field Airport

O'neill, Nebraska, USA
METAR KONL 131135Z AUTO 32020G27KT 10SM SCT016 BKN100 02/00 A2993 RMK AO2 T00230000
Observed Flight Rules
Dec-13 @ 11:35 UTC (18 minutes ago) Visual Flight Rules
Wind Visibility Clouds
320° at 20 knots
 Gusting to 27 knots
10 miles
  • Scattered at 1,600' AGL
  • Broken at 10,000' AGL
Temperatures Readings
Current 2°C / 36°F
Dewpoint 0°C / 32°F
Humidity 87%
Altimeter 29.93" Hg
Pressure 1014 hPa
Elevation 619
METAR KONL 131135Z AUTO 32020G27KT 10SM SCT016 BKN100 02/00 A2993 RMK AO2 T00230000
Observed Flight Rules
Dec-13 @ 11:35 UTC
(18 minutes ago)
VFR
Wind Visibility
320° at 20 knots
 Gusting to 27 knots
10 miles
Clouds
  • Scattered at 1,600' AGL
  • Broken at 10,000' AGL
Temperature Dewpoint
2°C / 36°F 0°C / 32°F
Humidity Altimeter Pressure
87% 29.93" Hg 1014 hPa